sensor_id;sensor_type;location;lat;lon;timestamp;pressure;altitude;pressure_sealevel;temperature;humidity
68654;BME280;55636;51.108;13.622;2023-08-06T00:00:23;99546.09;;;16.79;64.61
68654;BME280;55636;51.108;13.622;2023-08-06T00:01:25;99550.88;;;16.79;64.82
68654;BME280;55636;51.108;13.622;2023-08-06T00:02:29;99552.81;;;16.78;64.63
68654;BME280;55636;51.108;13.622;2023-08-06T00:03:31;99552.00;;;16.78;64.38
68654;BME280;55636;51.108;13.622;2023-08-06T00:04:34;99546.44;;;16.78;64.54
68654;BME280;55636;51.108;13.622;2023-08-06T00:05:37;99542.84;;;16.77;64.57
68654;BME280;55636;51.108;13.622;2023-08-06T00:06:39;99544.78;;;16.77;64.48
68654;BME280;55636;51.108;13.622;2023-08-06T00:07:42;99534.78;;;16.76;64.54
68654;BME280;55636;51.108;13.622;2023-08-06T00:08:44;99528.38;;;16.75;64.86
68654;BME280;55636;51.108;13.622;2023-08-06T00:09:47;99528.72;;;16.74;64.76
68654;BME280;55636;51.108;13.622;2023-08-06T00:10:49;99529.84;;;16.73;65.09
68654;BME280;55636;51.108;13.622;2023-08-06T00:11:52;99531.50;;;16.74;65.07
68654;BME280;55636;51.108;13.622;2023-08-06T00:12:55;99529.03;;;16.72;64.82
68654;BME280;55636;51.108;13.622;2023-08-06T00:13:58;99518.69;;;16.73;65.20
68654;BME280;55636;51.108;13.622;2023-08-06T00:15:01;99526.25;;;16.72;65.01
68654;BME280;55636;51.108;13.622;2023-08-06T00:16:13;99515.09;;;16.72;65.20
68654;BME280;55636;51.108;13.622;2023-08-06T00:17:16;99522.63;;;16.72;65.33
68654;BME280;55636;51.108;13.622;2023-08-06T00:18:18;99518.69;;;16.73;65.22
68654;BME280;55636;51.108;13.622;2023-08-06T00:19:21;99513.97;;;16.73;65.09
68654;BME280;55636;51.108;13.622;2023-08-06T00:20:23;99513.97;;;16.73;65.14
68654;BME280;55636;51.108;13.622;2023-08-06T00:21:26;99512.78;;;16.74;65.41
68654;BME280;55636;51.108;13.622;2023-08-06T00:22:28;99513.97;;;16.73;65.23
68654;BME280;55636;51.108;13.622;2023-08-06T00:23:31;99514.75;;;16.74;65.18
68654;BME280;55636;51.108;13.622;2023-08-06T00:24:34;99511.97;;;16.74;65.33
68654;BME280;55636;51.108;13.622;2023-08-06T00:25:36;99510.84;;;16.75;65.27
68654;BME280;55636;51.108;13.622;2023-08-06T00:26:39;99504.41;;;16.74;65.50
68654;BME280;55636;51.108;13.622;2023-08-06T00:27:41;99503.63;;;16.74;65.53
68654;BME280;55636;51.108;13.622;2023-08-06T00:28:44;99504.41;;;16.74;65.25
68654;BME280;55636;51.108;13.622;2023-08-06T00:29:46;99499.16;;;16.73;65.41
68654;BME280;55636;51.108;13.622;2023-08-06T00:30:55;99508.38;;;16.73;65.48
68654;BME280;55636;51.108;13.622;2023-08-06T00:31:57;99498.03;;;16.74;65.15
68654;BME280;55636;51.108;13.622;2023-08-06T00:33:00;99501.97;;;16.73;65.28
68654;BME280;55636;51.108;13.622;2023-08-06T00:34:02;99498.38;;;16.72;65.07
68654;BME280;55636;51.108;13.622;2023-08-06T00:35:05;99495.56;;;16.72;65.26
68654;BME280;55636;51.108;13.622;2023-08-06T00:36:08;99501.16;;;16.72;65.52
68654;BME280;55636;51.108;13.622;2023-08-06T00:37:11;99493.13;;;16.71;65.46
68654;BME280;55636;51.108;13.622;2023-08-06T00:38:14;99503.09;;;16.72;65.42
68654;BME280;55636;51.108;13.622;2023-08-06T00:39:16;99500.31;;;16.72;65.13
68654;BME280;55636;51.108;13.622;2023-08-06T00:40:20;99503.44;;;16.70;65.06
68654;BME280;55636;51.108;13.622;2023-08-06T00:41:24;99491.47;;;16.70;65.33
68654;BME280;55636;51.108;13.622;2023-08-06T00:42:26;99497.84;;;16.70;65.63
68654;BME280;55636;51.108;13.622;2023-08-06T00:43:29;99497.84;;;16.70;65.48
68654;BME280;55636;51.108;13.622;2023-08-06T00:44:31;99496.19;;;16.69;65.34
68654;BME280;55636;51.108;13.622;2023-08-06T00:45:35;99497.84;;;16.70;65.24
68654;BME280;55636;51.108;13.622;2023-08-06T00:46:38;99497.03;;;16.70;65.39
68654;BME280;55636;51.108;13.622;2023-08-06T00:47:41;99494.25;;;16.70;65.72
68654;BME280;55636;51.108;13.622;2023-08-06T00:48:44;99490.63;;;16.69;65.47
68654;BME280;55636;51.108;13.622;2023-08-06T00:49:46;99487.03;;;16.69;65.40
68654;BME280;55636;51.108;13.622;2023-08-06T00:50:49;99484.25;;;16.69;65.37
68654;BME280;55636;51.108;13.622;2023-08-06T00:51:52;99483.44;;;16.68;65.43
68654;BME280;55636;51.108;13.622;2023-08-06T00:52:55;99478.16;;;16.67;65.71
68654;BME280;55636;51.108;13.622;2023-08-06T00:53:58;99481.78;;;16.67;65.47
68654;BME280;55636;51.108;13.622;2023-08-06T00:55:00;99479.81;;;16.68;65.54
68654;BME280;55636;51.108;13.622;2023-08-06T00:56:03;99482.09;;;16.66;65.57
68654;BME280;55636;51.108;13.622;2023-08-06T00:57:07;99477.84;;;16.68;65.89
68654;BME280;55636;51.108;13.622;2023-08-06T00:58:10;99482.59;;;16.68;65.55
68654;BME280;55636;51.108;13.622;2023-08-06T00:59:13;99475.06;;;16.68;65.58
68654;BME280;55636;51.108;13.622;2023-08-06T01:00:15;99481.44;;;16.69;65.63
68654;BME280;55636;51.108;13.622;2023-08-06T01:01:18;99477.84;;;16.68;65.57
68654;BME280;55636;51.108;13.622;2023-08-06T01:02:20;99476.19;;;16.67;65.80
68654;BME280;55636;51.108;13.622;2023-08-06T01:03:23;99480.63;;;16.68;65.78
68654;BME280;55636;51.108;13.622;2023-08-06T01:04:26;99482.59;;;16.68;65.88
68654;BME280;55636;51.108;13.622;2023-08-06T01:05:28;99477.00;;;16.68;65.74
68654;BME280;55636;51.108;13.622;2023-08-06T01:08:25;99479.81;;;16.68;65.49
68654;BME280;55636;51.108;13.622;2023-08-06T01:09:41;99480.94;;;16.67;65.65
68654;BME280;55636;51.108;13.622;2023-08-06T01:11:14;99463.41;;;16.66;65.88
68654;BME280;55636;51.108;13.622;2023-08-06T01:12:30;99471.75;;;16.66;65.79
68654;BME280;55636;51.108;13.622;2023-08-06T01:13:45;99476.19;;;16.67;65.95
68654;BME280;55636;51.108;13.622;2023-08-06T01:14:59;99470.97;;;16.66;65.95
68654;BME280;55636;51.108;13.622;2023-08-06T01:16:03;99473.75;;;16.66;66.18
68654;BME280;55636;51.108;13.622;2023-08-06T01:17:08;99473.41;;;16.67;65.90
68654;BME280;55636;51.108;13.622;2023-08-06T01:18:11;99472.56;;;16.67;66.22
68654;BME280;55636;51.108;13.622;2023-08-06T01:19:17;99476.69;;;16.69;66.23
68654;BME280;55636;51.108;13.622;2023-08-06T01:20:19;99473.41;;;16.67;65.90
68654;BME280;55636;51.108;13.622;2023-08-06T01:21:22;99469.50;;;16.68;66.23
68654;BME280;55636;51.108;13.622;2023-08-06T01:22:24;99477.00;;;16.68;66.15
68654;BME280;55636;51.108;13.622;2023-08-06T01:23:27;99472.28;;;16.68;66.03
68654;BME280;55636;51.108;13.622;2023-08-06T01:24:29;99469.78;;;16.67;65.98
68654;BME280;55636;51.108;13.622;2023-08-06T01:25:42;99481.44;;;16.69;65.90
68654;BME280;55636;51.108;13.622;2023-08-06T01:27:08;99470.28;;;16.69;66.37
68654;BME280;55636;51.108;13.622;2023-08-06T01:28:21;99462.75;;;16.69;66.46
68654;BME280;55636;51.108;13.622;2023-08-06T01:29:34;99469.97;;;16.70;66.20
68654;BME280;55636;51.108;13.622;2023-08-06T01:30:40;99464.41;;;16.70;66.30
68654;BME280;55636;51.108;13.622;2023-08-06T01:31:48;99454.09;;;16.71;66.48
68654;BME280;55636;51.108;13.622;2023-08-06T01:32:54;99460.47;;;16.71;66.26
68654;BME280;55636;51.108;13.622;2023-08-06T01:34:04;99454.88;;;16.71;66.55
68654;BME280;55636;51.108;13.622;2023-08-06T01:35:08;99462.13;;;16.72;66.43
68654;BME280;55636;51.108;13.622;2023-08-06T01:36:13;99452.91;;;16.72;66.26
68654;BME280;55636;51.108;13.622;2023-08-06T01:37:17;99439.81;;;16.72;66.32
68654;BME280;55636;51.108;13.622;2023-08-06T01:38:20;99445.38;;;16.72;65.95
68654;BME280;55636;51.108;13.622;2023-08-06T01:39:23;99450.13;;;16.72;66.15
68654;BME280;55636;51.108;13.622;2023-08-06T01:40:26;99441.75;;;16.72;65.80
68654;BME280;55636;51.108;13.622;2023-08-06T01:41:31;99437.84;;;16.73;65.98
68654;BME280;55636;51.108;13.622;2023-08-06T01:42:33;99440.63;;;16.73;65.78
68654;BME280;55636;51.108;13.622;2023-08-06T01:43:36;99443.41;;;16.73;65.78
68654;BME280;55636;51.108;13.622;2023-08-06T01:44:38;99443.91;;;16.75;65.92
68654;BME280;55636;51.108;13.622;2023-08-06T01:45:41;99438.34;;;16.75;66.13
68654;BME280;55636;51.108;13.622;2023-08-06T01:46:43;99438.34;;;16.75;66.21
68654;BME280;55636;51.108;13.622;2023-08-06T01:47:46;99437.19;;;16.76;66.01
68654;BME280;55636;51.108;13.622;2023-08-06T01:48:48;99434.41;;;16.76;65.99
68654;BME280;55636;51.108;13.622;2023-08-06T01:49:50;99426.03;;;16.76;65.94
68654;BME280;55636;51.108;13.622;2023-08-06T01:50:53;99429.63;;;16.76;65.95
68654;BME280;55636;51.108;13.622;2023-08-06T01:51:56;99428.50;;;16.77;66.25
68654;BME280;55636;51.108;13.622;2023-08-06T01:52:58;99436.53;;;16.79;66.11
68654;BME280;55636;51.108;13.622;2023-08-06T01:54:01;99430.97;;;16.79;66.28
68654;BME280;55636;51.108;13.622;2023-08-06T01:55:04;99428.16;;;16.79;66.42
68654;BME280;55636;51.108;13.622;2023-08-06T01:56:06;99429.81;;;16.80;66.13
68654;BME280;55636;51.108;13.622;2023-08-06T01:57:09;99430.63;;;16.80;66.07
68654;BME280;55636;51.108;13.622;2023-08-06T01:58:12;99425.06;;;16.80;66.46
68654;BME280;55636;51.108;13.622;2023-08-06T01:59:14;99420.28;;;16.81;66.36
68654;BME280;55636;51.108;13.622;2023-08-06T02:00:17;99426.38;;;16.83;66.44
68654;BME280;55636;51.108;13.622;2023-08-06T02:01:19;99426.38;;;16.83;66.22
68654;BME280;55636;51.108;13.622;2023-08-06T02:02:21;99421.94;;;16.82;66.27
68654;BME280;55636;51.108;13.622;2023-08-06T02:03:24;99427.19;;;16.84;66.12
68654;BME280;55636;51.108;13.622;2023-08-06T02:04:26;99421.59;;;16.84;66.06
68654;BME280;55636;51.108;13.622;2023-08-06T02:05:29;99426.88;;;16.85;66.16
68654;BME280;55636;51.108;13.622;2023-08-06T02:06:31;99429.66;;;16.85;66.27
68654;BME280;55636;51.108;13.622;2023-08-06T02:07:34;99434.06;;;16.86;66.26
68654;BME280;55636;51.108;13.622;2023-08-06T02:08:37;99431.28;;;16.86;66.30
68654;BME280;55636;51.108;13.622;2023-08-06T02:09:41;99436.06;;;16.86;66.42
68654;BME280;55636;51.108;13.622;2023-08-06T02:10:44;99425.72;;;16.86;66.47
68654;BME280;55636;51.108;13.622;2023-08-06T02:11:47;99430.16;;;16.87;66.48
68654;BME280;55636;51.108;13.622;2023-08-06T02:12:49;99426.22;;;16.88;66.59
68654;BME280;55636;51.108;13.622;2023-08-06T02:13:52;99429.00;;;16.88;66.29
68654;BME280;55636;51.108;13.622;2023-08-06T02:14:54;99438.19;;;16.89;66.26
68654;BME280;55636;51.108;13.622;2023-08-06T02:15:56;99432.59;;;16.89;66.43
68654;BME280;55636;51.108;13.622;2023-08-06T02:16:59;99435.91;;;16.91;66.48
68654;BME280;55636;51.108;13.622;2023-08-06T02:18:02;99435.09;;;16.90;66.40
68654;BME280;55636;51.108;13.622;2023-08-06T02:19:04;99433.44;;;16.89;66.38
68654;BME280;55636;51.108;13.622;2023-08-06T02:20:07;99425.56;;;16.91;66.05
68654;BME280;55636;51.108;13.622;2023-08-06T02:21:09;99436.72;;;16.91;66.38
68654;BME280;55636;51.108;13.622;2023-08-06T02:22:12;99438.69;;;16.91;66.26
68654;BME280;55636;51.108;13.622;2023-08-06T02:23:16;99429.19;;;16.92;66.15
68654;BME280;55636;51.108;13.622;2023-08-06T02:24:18;99431.97;;;16.92;66.27
68654;BME280;55636;51.108;13.622;2023-08-06T02:25:21;99438.34;;;16.92;66.30
68654;BME280;55636;51.108;13.622;2023-08-06T02:26:23;99430.00;;;16.92;66.39
68654;BME280;55636;51.108;13.622;2023-08-06T02:27:26;99422.47;;;16.93;66.15
68654;BME280;55636;51.108;13.622;2023-08-06T02:28:30;99419.34;;;16.94;66.17
68654;BME280;55636;51.108;13.622;2023-08-06T02:29:33;99421.63;;;16.92;66.24
68654;BME280;55636;51.108;13.622;2023-08-06T02:30:35;99424.91;;;16.94;66.15
68654;BME280;55636;51.108;13.622;2023-08-06T02:31:38;99414.91;;;16.93;65.87
68654;BME280;55636;51.108;13.622;2023-08-06T02:32:40;99417.34;;;16.95;65.90
68654;BME280;55636;51.108;13.622;2023-08-06T02:33:43;99422.13;;;16.94;65.85
68654;BME280;55636;51.108;13.622;2023-08-06T02:34:45;99424.59;;;16.96;66.18
68654;BME280;55636;51.108;13.622;2023-08-06T02:35:48;99414.56;;;16.95;66.00
68654;BME280;55636;51.108;13.622;2023-08-06T02:36:51;99411.78;;;16.95;65.73
68654;BME280;55636;51.108;13.622;2023-08-06T02:37:54;99416.22;;;16.96;66.00
68654;BME280;55636;51.108;13.622;2023-08-06T02:38:56;99418.19;;;16.95;65.95
68654;BME280;55636;51.108;13.622;2023-08-06T02:39:59;99422.13;;;16.94;65.93
68654;BME280;55636;51.108;13.622;2023-08-06T02:41:03;99417.34;;;16.95;66.05
68654;BME280;55636;51.108;13.622;2023-08-06T02:42:07;99418.19;;;16.95;66.07
68654;BME280;55636;51.108;13.622;2023-08-06T02:43:09;99411.78;;;16.95;66.07
68654;BME280;55636;51.108;13.622;2023-08-06T02:44:12;99410.97;;;16.94;66.23
68654;BME280;55636;51.108;13.622;2023-08-06T02:45:14;99407.34;;;16.94;65.97
68654;BME280;55636;51.108;13.622;2023-08-06T02:46:17;99413.75;;;16.94;66.04
68654;BME280;55636;51.108;13.622;2023-08-06T02:47:19;99409.84;;;16.95;66.00
68654;BME280;55636;51.108;13.622;2023-08-06T02:48:21;99413.75;;;16.94;66.10
68654;BME280;55636;51.108;13.622;2023-08-06T02:49:24;99410.13;;;16.94;65.84
68654;BME280;55636;51.108;13.622;2023-08-06T02:50:26;99416.56;;;16.94;66.17
68654;BME280;55636;51.108;13.622;2023-08-06T02:51:29;99408.19;;;16.94;66.14
68654;BME280;55636;51.108;13.622;2023-08-06T02:52:31;99403.41;;;16.95;66.20
68654;BME280;55636;51.108;13.622;2023-08-06T02:53:33;99404.25;;;16.95;66.33
68654;BME280;55636;51.108;13.622;2023-08-06T02:54:40;99400.63;;;16.95;66.20
68654;BME280;55636;51.108;13.622;2023-08-06T02:55:47;99400.63;;;16.95;66.15
68654;BME280;55636;51.108;13.622;2023-08-06T02:56:52;99402.59;;;16.94;66.15
68654;BME280;55636;51.108;13.622;2023-08-06T02:58:03;99395.88;;;16.95;66.22
68654;BME280;55636;51.108;13.622;2023-08-06T02:59:09;99391.44;;;16.94;66.31
68654;BME280;55636;51.108;13.622;2023-08-06T03:00:21;99389.47;;;16.95;66.14
68654;BME280;55636;51.108;13.622;2023-08-06T03:01:24;99391.44;;;16.94;66.11
68654;BME280;55636;51.108;13.622;2023-08-06T03:02:33;99393.41;;;16.94;66.24
68654;BME280;55636;51.108;13.622;2023-08-06T03:03:50;99391.44;;;16.94;66.31
68654;BME280;55636;51.108;13.622;2023-08-06T03:04:58;99391.44;;;16.94;65.97
68654;BME280;55636;51.108;13.622;2023-08-06T03:06:05;99393.41;;;16.94;66.04
68654;BME280;55636;51.108;13.622;2023-08-06T03:07:15;99389.00;;;16.93;66.51
68654;BME280;55636;51.108;13.622;2023-08-06T03:08:28;99381.44;;;16.93;66.42
68654;BME280;55636;51.108;13.622;2023-08-06T03:09:31;99386.19;;;16.93;66.18
68654;BME280;55636;51.108;13.622;2023-08-06T03:10:34;99381.44;;;16.93;66.44
68654;BME280;55636;51.108;13.622;2023-08-06T03:11:39;99385.38;;;16.92;66.24
68654;BME280;55636;51.108;13.622;2023-08-06T03:12:45;99377.84;;;16.93;66.20
68654;BME280;55636;51.108;13.622;2023-08-06T03:13:48;99375.34;;;16.91;66.20
68654;BME280;55636;51.108;13.622;2023-08-06T03:14:51;99373.41;;;16.92;66.22
68654;BME280;55636;51.108;13.622;2023-08-06T03:15:56;99361.41;;;16.91;66.13
68654;BME280;55636;51.108;13.622;2023-08-06T03:17:00;99372.56;;;16.91;66.04
68654;BME280;55636;51.108;13.622;2023-08-06T03:18:02;99371.75;;;16.91;66.08
68654;BME280;55636;51.108;13.622;2023-08-06T03:19:05;99371.75;;;16.91;66.09
68654;BME280;55636;51.108;13.622;2023-08-06T03:20:08;99362.56;;;16.90;66.04
68654;BME280;55636;51.108;13.622;2023-08-06T03:21:11;99365.38;;;16.90;66.38
68654;BME280;55636;51.108;13.622;2023-08-06T03:22:13;99364.19;;;16.91;66.26
68654;BME280;55636;51.108;13.622;2023-08-06T03:23:16;99362.56;;;16.90;66.37
68654;BME280;55636;51.108;13.622;2023-08-06T03:24:18;99363.38;;;16.91;66.52
68654;BME280;55636;51.108;13.622;2023-08-06T03:25:22;99362.88;;;16.89;66.49
68654;BME280;55636;51.108;13.622;2023-08-06T03:26:25;99356.16;;;16.90;66.79
68654;BME280;55636;51.108;13.622;2023-08-06T03:27:27;99352.22;;;16.91;66.68
68654;BME280;55636;51.108;13.622;2023-08-06T03:28:30;99347.47;;;16.91;66.63
68654;BME280;55636;51.108;13.622;2023-08-06T03:29:34;99345.50;;;16.92;66.68
68654;BME280;55636;51.108;13.622;2023-08-06T03:30:36;99353.88;;;16.92;66.60
68654;BME280;55636;51.108;13.622;2023-08-06T03:31:40;99354.34;;;16.94;66.66
68654;BME280;55636;51.108;13.622;2023-08-06T03:32:44;99345.50;;;16.92;66.54
68654;BME280;55636;51.108;13.622;2023-08-06T03:33:47;99349.09;;;16.92;66.72
68654;BME280;55636;51.108;13.622;2023-08-06T03:34:53;99344.38;;;16.93;66.43
68654;BME280;55636;51.108;13.622;2023-08-06T03:35:57;99343.53;;;16.92;66.68
68654;BME280;55636;51.108;13.622;2023-08-06T03:36:59;99345.19;;;16.93;66.75
68654;BME280;55636;51.108;13.622;2023-08-06T03:38:03;99340.75;;;16.92;66.44
68654;BME280;55636;51.108;13.622;2023-08-06T03:39:06;99336.00;;;16.93;66.40
68654;BME280;55636;51.108;13.622;2023-08-06T03:40:09;99338.78;;;16.93;66.46
68654;BME280;55636;51.108;13.622;2023-08-06T03:41:11;99343.19;;;16.94;66.60
68654;BME280;55636;51.108;13.622;2023-08-06T03:42:14;99339.59;;;16.93;66.62
68654;BME280;55636;51.108;13.622;2023-08-06T03:43:16;99343.19;;;16.94;66.20
68654;BME280;55636;51.108;13.622;2023-08-06T03:44:19;99334.81;;;16.94;66.48
68654;BME280;55636;51.108;13.622;2023-08-06T03:45:21;99337.31;;;16.95;66.44
68654;BME280;55636;51.108;13.622;2023-08-06T03:46:24;99329.25;;;16.94;66.41
68654;BME280;55636;51.108;13.622;2023-08-06T03:47:28;99333.22;;;16.93;66.38
68654;BME280;55636;51.108;13.622;2023-08-06T03:48:30;99330.09;;;16.94;66.26
68654;BME280;55636;51.108;13.622;2023-08-06T03:49:33;99329.25;;;16.94;66.58
68654;BME280;55636;51.108;13.622;2023-08-06T03:50:35;99333.69;;;16.95;66.47
68654;BME280;55636;51.108;13.622;2023-08-06T03:51:38;99330.88;;;16.95;66.29
68654;BME280;55636;51.108;13.622;2023-08-06T03:52:40;99329.25;;;16.94;66.53
68654;BME280;55636;51.108;13.622;2023-08-06T03:53:43;99332.03;;;16.94;66.64
68654;BME280;55636;51.108;13.622;2023-08-06T03:54:45;99336.47;;;16.95;66.52
68654;BME280;55636;51.108;13.622;2023-08-06T03:55:47;99330.88;;;16.95;66.64
68654;BME280;55636;51.108;13.622;2023-08-06T03:56:50;99334.53;;;16.95;66.30
68654;BME280;55636;51.108;13.622;2023-08-06T03:57:53;99330.88;;;16.95;66.27
68654;BME280;55636;51.108;13.622;2023-08-06T03:58:56;99329.25;;;16.94;66.58
68654;BME280;55636;51.108;13.622;2023-08-06T03:59:59;99328.09;;;16.95;66.60
68654;BME280;55636;51.108;13.622;2023-08-06T04:01:04;99327.28;;;16.94;66.35
68654;BME280;55636;51.108;13.622;2023-08-06T04:02:15;99330.88;;;16.95;66.44
68654;BME280;55636;51.108;13.622;2023-08-06T04:03:17;99318.09;;;16.94;66.64
68654;BME280;55636;51.108;13.622;2023-08-06T04:04:20;99326.97;;;16.96;66.62
68654;BME280;55636;51.108;13.622;2023-08-06T04:05:22;99328.09;;;16.95;66.59
68654;BME280;55636;51.108;13.622;2023-08-06T04:06:25;99311.38;;;16.95;66.53
68654;BME280;55636;51.108;13.622;2023-08-06T04:07:28;99315.31;;;16.94;66.53
68654;BME280;55636;51.108;13.622;2023-08-06T04:08:30;99307.78;;;16.94;66.30
68654;BME280;55636;51.108;13.622;2023-08-06T04:09:34;99308.59;;;16.95;66.40
68654;BME280;55636;51.108;13.622;2023-08-06T04:10:36;99310.56;;;16.94;66.44
68654;BME280;55636;51.108;13.622;2023-08-06T04:11:39;99299.75;;;16.93;66.12
68654;BME280;55636;51.108;13.622;2023-08-06T04:12:43;99306.94;;;16.94;66.15
68654;BME280;55636;51.108;13.622;2023-08-06T04:13:46;99298.56;;;16.94;66.11
68654;BME280;55636;51.108;13.622;2023-08-06T04:14:50;99293.00;;;16.94;66.25
68654;BME280;55636;51.108;13.622;2023-08-06T04:15:53;99293.00;;;16.94;65.88
68654;BME280;55636;51.108;13.622;2023-08-06T04:16:56;99292.19;;;16.93;66.03
68654;BME280;55636;51.108;13.622;2023-08-06T04:17:59;99286.59;;;16.93;66.28
68654;BME280;55636;51.108;13.622;2023-08-06T04:19:01;99287.75;;;16.92;66.28
68654;BME280;55636;51.108;13.622;2023-08-06T04:20:04;99288.59;;;16.93;66.12
68654;BME280;55636;51.108;13.622;2023-08-06T04:21:07;99293.00;;;16.94;65.99
68654;BME280;55636;51.108;13.622;2023-08-06T04:22:09;99286.59;;;16.93;65.86
68654;BME280;55636;51.108;13.622;2023-08-06T04:23:12;99284.97;;;16.92;66.14
68654;BME280;55636;51.108;13.622;2023-08-06T04:24:14;99294.16;;;16.93;65.89
68654;BME280;55636;51.108;13.622;2023-08-06T04:25:17;99288.59;;;16.93;66.09
68654;BME280;55636;51.108;13.622;2023-08-06T04:26:23;99283.81;;;16.93;66.07
68654;BME280;55636;51.108;13.622;2023-08-06T04:27:25;99286.94;;;16.92;66.06
68654;BME280;55636;51.108;13.622;2023-08-06T04:28:28;99284.16;;;16.92;66.05
68654;BME280;55636;51.108;13.622;2023-08-06T04:29:30;99288.88;;;16.91;65.97
68654;BME280;55636;51.108;13.622;2023-08-06T04:30:33;99288.09;;;16.91;66.09
68654;BME280;55636;51.108;13.622;2023-08-06T04:31:37;99280.53;;;16.91;65.85
68654;BME280;55636;51.108;13.622;2023-08-06T04:32:40;99286.59;;;16.93;66.21
68654;BME280;55636;51.108;13.622;2023-08-06T04:33:42;99286.94;;;16.92;66.01
68654;BME280;55636;51.108;13.622;2023-08-06T04:34:47;99290.53;;;16.92;65.95
68654;BME280;55636;51.108;13.622;2023-08-06T04:35:54;99282.16;;;16.92;66.04
68654;BME280;55636;51.108;13.622;2023-08-06T04:36:59;99279.72;;;16.91;66.17
68654;BME280;55636;51.108;13.622;2023-08-06T04:38:02;99286.94;;;16.92;65.97
68654;BME280;55636;51.108;13.622;2023-08-06T04:39:04;99272.16;;;16.91;66.06
68654;BME280;55636;51.108;13.622;2023-08-06T04:40:07;99279.72;;;16.91;65.96
68654;BME280;55636;51.108;13.622;2023-08-06T04:41:10;99277.72;;;16.91;65.78
68654;BME280;55636;51.108;13.622;2023-08-06T04:42:13;99277.72;;;16.91;65.98
68654;BME280;55636;51.108;13.622;2023-08-06T04:43:15;99274.94;;;16.91;65.85
68654;BME280;55636;51.108;13.622;2023-08-06T04:44:17;99267.41;;;16.92;65.78
68654;BME280;55636;51.108;13.622;2023-08-06T04:45:20;99275.78;;;16.92;65.65
68654;BME280;55636;51.108;13.622;2023-08-06T04:46:22;99277.44;;;16.93;65.88
68654;BME280;55636;51.108;13.622;2023-08-06T04:47:25;99273.00;;;16.92;65.74
68654;BME280;55636;51.108;13.622;2023-08-06T04:48:28;99278.22;;;16.93;65.88
68654;BME280;55636;51.108;13.622;2023-08-06T04:49:30;99272.66;;;16.93;66.01
68654;BME280;55636;51.108;13.622;2023-08-06T04:50:33;99276.25;;;16.94;66.21
68654;BME280;55636;51.108;13.622;2023-08-06T04:51:35;99270.66;;;16.94;66.03
68654;BME280;55636;51.108;13.622;2023-08-06T04:52:38;99274.31;;;16.94;66.26
68654;BME280;55636;51.108;13.622;2023-08-06T04:53:40;99267.88;;;16.94;66.24
68654;BME280;55636;51.108;13.622;2023-08-06T04:54:43;99271.50;;;16.94;66.08
68654;BME280;55636;51.108;13.622;2023-08-06T04:55:46;99272.31;;;16.95;66.28
68654;BME280;55636;51.108;13.622;2023-08-06T04:56:48;99267.88;;;16.94;66.00
68654;BME280;55636;51.108;13.622;2023-08-06T04:57:50;99270.66;;;16.94;66.24
68654;BME280;55636;51.108;13.622;2023-08-06T04:58:53;99263.16;;;16.94;66.37
68654;BME280;55636;51.108;13.622;2023-08-06T04:59:55;99263.16;;;16.94;66.18
68654;BME280;55636;51.108;13.622;2023-08-06T05:00:58;99262.00;;;16.95;66.15
68654;BME280;55636;51.108;13.622;2023-08-06T05:02:00;99263.94;;;16.95;66.02
68654;BME280;55636;51.108;13.622;2023-08-06T05:03:03;99263.94;;;16.95;66.04
68654;BME280;55636;51.108;13.622;2023-08-06T05:04:05;99262.31;;;16.94;66.08
68654;BME280;55636;51.108;13.622;2023-08-06T05:05:08;99263.16;;;16.94;66.34
68654;BME280;55636;51.108;13.622;2023-08-06T05:06:10;99262.31;;;16.94;66.00
68654;BME280;55636;51.108;13.622;2023-08-06T05:07:13;99263.16;;;16.94;66.11
68654;BME280;55636;51.108;13.622;2023-08-06T05:08:15;99258.38;;;16.95;66.15
68654;BME280;55636;51.108;13.622;2023-08-06T05:09:21;99257.56;;;16.94;66.37
68654;BME280;55636;51.108;13.622;2023-08-06T05:10:27;99262.31;;;16.94;66.22
68654;BME280;55636;51.108;13.622;2023-08-06T05:11:29;99256.72;;;16.94;65.92
68654;BME280;55636;51.108;13.622;2023-08-06T05:12:32;99256.72;;;16.94;65.89
68654;BME280;55636;51.108;13.622;2023-08-06T05:13:34;99259.53;;;16.94;66.09
68654;BME280;55636;51.108;13.622;2023-08-06T05:14:36;99261.50;;;16.93;66.40
68654;BME280;55636;51.108;13.622;2023-08-06T05:15:39;99258.72;;;16.93;66.30
68654;BME280;55636;51.108;13.622;2023-08-06T05:16:45;99256.72;;;16.94;66.25
68654;BME280;55636;51.108;13.622;2023-08-06T05:17:47;99251.16;;;16.94;66.48
68654;BME280;55636;51.108;13.622;2023-08-06T05:18:50;99258.72;;;16.93;66.34
68654;BME280;55636;51.108;13.622;2023-08-06T05:19:52;99246.75;;;16.93;66.07
68654;BME280;55636;51.108;13.622;2023-08-06T05:20:54;99246.75;;;16.93;66.29
68654;BME280;55636;51.108;13.622;2023-08-06T05:21:57;99249.53;;;16.93;66.02
68654;BME280;55636;51.108;13.622;2023-08-06T05:22:59;99241.97;;;16.93;66.08
68654;BME280;55636;51.108;13.622;2023-08-06T05:24:02;99248.38;;;16.94;66.00
68654;BME280;55636;51.108;13.622;2023-08-06T05:25:05;99253.13;;;16.93;66.01
68654;BME280;55636;51.108;13.622;2023-08-06T05:26:08;99243.63;;;16.94;66.14
68654;BME280;55636;51.108;13.622;2023-08-06T05:27:11;99245.56;;;16.94;65.99
68654;BME280;55636;51.108;13.622;2023-08-06T05:28:13;99247.22;;;16.95;65.87
68654;BME280;55636;51.108;13.622;2023-08-06T05:29:16;99252.78;;;16.95;65.89
68654;BME280;55636;51.108;13.622;2023-08-06T05:30:18;99251.66;;;16.96;66.12
68654;BME280;55636;51.108;13.622;2023-08-06T05:31:21;99250.84;;;16.95;65.89
68654;BME280;55636;51.108;13.622;2023-08-06T05:32:24;99249.19;;;16.94;65.89
68654;BME280;55636;51.108;13.622;2023-08-06T05:33:27;99246.88;;;16.96;66.16
68654;BME280;55636;51.108;13.622;2023-08-06T05:34:29;99242.13;;;16.97;66.11